MMMZ/MZT METAR and TAF weather

Enter ICAO airport designator
Station Type Date Time Source
MMMZ METAR 2021/08/01 17:43 UTC NOAA

MMMZ 011743Z 25002KT 15SM SCT018 BKN240 32/26 A2998 RMK SLP148 57003 903 8/102


Station Type Date Time Source
MMMZ Decoded METAR 2021/08/01 17:43 UTC NOAA

Mazatlan / G. Buelna, Mexico (MMMZ) 23-10N 106-16W
Aug 01, 2021 - 01:43 PM EDT / 2021.08.01 1743 UTC
Wind: from the WSW (250 degrees) at 2 MPH (2 KT):0
Visibility: 15 mile(s):0
Sky conditions: mostly cloudy
Temperature: 89 F (32 C)
Heat index: 102.9 F (39.4 C):1
Dew Point: 78 F (26 C)
Relative Humidity: 70%
Pressure (altimeter): 29.98 in. Hg (1015 hPa)
Pressure tendency: 0.01 inches (0.3 hPa) lower than three hours ago
ob: MMMZ 011743Z 25002KT 15SM SCT018 BKN240 32/26 A2998 RMK SLP148 57003 903 8/102
cycle: 17

Station Type Date Time Source
MMMZ TAF 2021/08/01 18:41 UTC NOAA

TAF MMMZ 011633Z 0118/0224 26010KT P6SM SCT025 TX32/0122Z TN24/0212Z
FM020600 34005KT P6SM SCT020 BKN250 PROB40 0213/0217 5SM -RA BKN025CB
FM021900 27010KT P6SM SCT030 BKN090 BKN250
TEMPO 0220/0224 BKN020CB

Example: see airport list